Terminal Aerodrome Forecast
Issued by NWS

Home | Current Version | Previous Version | Text Only | Print | Product List | Glossary On
Versions: 1 2 3 4 5 6 7 8 9 10 11 12 13 14 15 16 17 18 19 20 21
000
FTUS44 KLZK 172019 AAB
TAFPBF
TAF AMD
KPBF 172019Z 1720/1818 VRB04KT P6SM OVC005
      TEMPO 1720/1722 5SM BR
     FM180400 VRB03KT 5SM BR BKN005 OVC020
     FM181500 VRB03KT P6SM SCT020=

USA.gov is the U.S. government's official web portal to all federal, state and local government web resources and services.